Latest Weather Observations for Kilmore Gap

IDV60801

Issued at 10:03 pm EDT Tuesday 24 January 2017 (issued every 30 minutes, with the page automatically refreshed every 10 minutes)

About weather observations | Map of weather stations | Latest weather observations for VIC | Other Formats
Station Details ID: 088162 Name: KILMORE GAP Lat: -37.38 Lon: 144.97 Height: 527.8 m
Data from the previous 72 hours. | See also: Recent months at Kilmore Gap
Date/Time
EDT
Temp
°C
App
Temp
°C
Dew
Point
°C
Rel
Hum
%
Delta-T
°C
Wind Press
QNH
hPa
Press
MSL
hPa
Rain since
9am
mm
Dir  Spd
km/h
Gust
km/h
Spd
kts
Gust
kts
24/10:00pm 11.9 7.6 8.0 77 2.0 S 20 20 11 11 1020.9 1019.1 -
24/09:30pm 12.1 8.1 8.2 77 2.0 S 19 28 10 15 1020.5 1018.6 0.2
24/09:00pm 12.8 8.8 8.3 74 2.3 S 19 32 10 17 1020.2 1018.4 0.2
24/08:30pm 13.6 9.4 8.4 71 2.7 S 20 32 11 17 1019.8 1018.0 0.2
24/08:00pm 15.0 10.5 8.5 65 3.4 S 22 30 12 16 1019.2 1017.4 0.2
24/07:30pm 16.1 11.2 8.3 60 4.1 S 24 33 13 18 1018.6 1016.7 0.2
24/07:00pm 17.1 11.7 8.0 55 4.7 S 26 37 14 20 1018.0 1016.2 0.2
24/06:30pm 17.7 12.8 8.3 54 4.9 SSE 24 35 13 19 1017.6 1015.8 0.2
24/06:00pm 18.6 13.7 8.6 52 5.3 S 24 35 13 19 1017.3 1015.4 0.2
24/05:30pm 19.5 14.9 8.2 48 6.0 S 22 39 12 21 1017.1 1015.2 0.2
24/05:00pm 19.9 15.4 8.6 48 6.1 S 22 41 12 22 1017.0 1015.1 0.2
24/04:30pm 19.0 13.2 7.8 48 5.9 S 28 43 15 23 1016.7 1014.8 0.2
24/04:00pm 20.0 14.8 9.0 49 5.9 SSE 26 41 14 22 1016.3 1014.5 0.2
24/03:30pm 21.3 16.6 9.2 46 6.6 S 24 39 13 21 1016.3 1014.5 0.2
24/03:00pm 20.0 14.9 7.7 45 6.5 S 24 39 13 21 1016.1 1014.3 0.2
24/02:30pm 21.3 16.3 7.9 42 7.2 S 24 35 13 19 1015.8 1014.0 0.2
24/02:00pm 21.4 15.5 5.7 36 8.0 SSW 26 44 14 24 1015.6 1013.7 0.2
24/01:30pm 21.8 16.5 6.9 38 7.8 S 24 39 13 21 1015.4 1013.5 0.2
24/01:00pm 20.0 13.8 6.0 40 7.2 SSW 28 39 15 21 1015.4 1013.5 0.2
24/12:32pm 19.5 13.6 7.3 45 6.4 SSW 28 46 15 25 1015.3 1013.4 0.2
24/12:30pm 19.9 14.4 7.6 45 6.5 SSW 26 43 14 23 1015.3 1013.4 0.2
24/12:04pm 18.8 12.8 6.9 46 6.1 SSW 28 54 15 29 1015.2 1013.3 0.0
24/12:00pm 20.1 15.1 8.1 46 6.4 SSW 24 54 13 29 1015.2 1013.3 0.0
24/11:31am 19.2 13.6 8.8 51 5.6 SSW 28 46 15 25 1015.2 1013.3 0.0
24/11:30am 18.6 12.5 8.3 51 5.5 SSW 30 46 16 25 1015.3 1013.4 0.0
24/11:00am 18.9 13.4 9.1 53 5.3 SSW 28 46 15 25 1014.8 1012.9 0.0
24/10:52am 17.9 12.4 9.0 56 4.8 SSW 28 46 15 25 1014.6 1012.7 0.0
24/10:30am 18.1 13.5 9.5 57 4.6 SSW 24 46 13 25 1014.5 1012.6 0.0
24/10:02am 16.5 11.0 9.0 61 4.0 SSW 28 46 15 25 1014.2 1012.4 0.0
24/10:00am 16.4 11.1 8.6 60 4.1 SSW 26 43 14 23 1014.2 1012.4 0.0
24/09:32am 15.6 10.7 11.2 75 2.4 SSW 28 46 15 25 1013.9 1012.0 0.0
24/09:30am 15.0 9.1 10.6 75 2.4 SSW 32 46 17 25 1013.8 1011.9 0.0
24/09:18am 15.7 10.8 11.3 75 2.4 SSW 28 46 15 25 1013.5 1011.6 0.0
24/09:00am 16.0 12.1 12.0 77 2.2 SSW 24 37 13 20 1013.2 1011.3 0.0
24/08:30am 15.9 12.1 12.3 79 2.0 SSW 24 39 13 21 1012.9 1011.0 0.0
24/08:00am 15.4 11.1 12.2 81 1.8 SSW 26 46 14 25 1012.0 1010.1 0.0
24/07:58am 15.4 10.8 12.2 81 1.8 SSW 28 46 15 25 1011.9 1010.0 0.0
24/07:37am 15.7 10.8 12.6 82 1.8 SSW 30 39 16 21 1011.3 1009.4 0.0
24/07:30am 15.9 11.0 12.6 81 1.9 SSW 30 48 16 26 1011.2 1009.3 0.0
24/07:24am 16.0 11.2 12.9 82 1.8 SSW 30 48 16 26 1011.0 1009.1 0.0
24/07:15am 16.4 12.6 14.6 89 1.1 SSW 28 43 15 23 1010.7 1008.7 0.0
24/07:14am 16.4 12.6 14.6 89 1.1 SSW 28 43 15 23 1010.7 1008.7 0.0
24/07:00am 16.5 12.8 15.0 91 0.9 SSW 28 46 15 25 1010.1 1008.2 0.0
24/06:59am 16.5 12.8 15.0 91 0.9 SSW 28 46 15 25 1010.0 1008.1 0.0
24/06:30am 16.9 13.7 16.4 97 0.3 SSW 28 39 15 21 1009.4 1007.5 0.0
24/06:00am 17.3 14.4 17.1 99 0.1 SW 28 43 15 23 1008.6 1006.6 0.0
24/05:35am 17.6 15.2 17.3 98 0.2 SW 26 39 14 21 1008.1 1006.2 0.0
24/05:30am 17.6 14.8 17.3 98 0.2 SW 28 41 15 22 1007.8 1005.9 0.0
24/05:15am 18.1 15.4 17.5 96 0.4 SSW 28 41 15 22 1007.5 1005.6 0.0
24/05:13am 18.2 15.4 17.4 95 0.5 SSW 28 41 15 22 1007.4 1005.4 0.0
24/05:06am 19.3 18.6 17.3 88 1.2 SW 17 39 9 21 1007.4 1005.4 0.0
24/05:00am 21.2 21.9 18.0 82 2.0 WSW 11 19 6 10 1007.2 1005.2 0.0
24/04:30am 21.1 21.1 18.1 83 1.9 WNW 15 20 8 11 1007.0 1005.0 0.0
24/04:00am 21.2 20.8 18.0 82 2.0 WNW 17 24 9 13 1006.8 1004.8 0.0
24/03:30am 21.6 21.9 18.0 80 2.3 WNW 13 22 7 12 1006.8 1004.8 0.0
24/03:00am 21.9 20.5 17.9 78 2.5 NW 22 35 12 19 1006.2 1004.3 0.0
24/02:30am 22.3 20.6 17.2 73 3.2 WNW 22 33 12 18 1006.5 1004.5 0.0
24/02:00am 22.6 19.5 16.6 69 3.8 NW 28 43 15 23 1006.2 1004.3 0.0
24/01:30am 22.4 18.7 16.0 67 3.9 NNW 30 43 16 23 1006.2 1004.3 0.0
24/01:00am 22.7 18.9 15.8 65 4.3 NW 30 48 16 26 1006.6 1004.6 0.0
24/12:52am 22.5 18.6 15.6 65 4.2 NW 30 48 16 26 1006.5 1004.5 0.0
24/12:30am 21.8 17.6 15.6 68 3.8 NW 32 46 17 25 1006.6 1004.6 0.0
24/12:00am 20.6 19.5 15.2 71 3.3 WNW 15 33 8 18 1007.1 1005.1 0.0
 
Date/Time
EDT
Temp
°C
App
Temp
°C
Dew
Point
°C
Rel
Hum
%
Delta-T
°C
Wind Press
QNH
hPa
Press
MSL
hPa
Rain since
9am
mm
Dir  Spd
km/h
Gust
km/h
Spd
kts
Gust
kts
23/11:30pm 19.5 20.2 15.6 78 2.4 WSW 6 11 3 6 1006.5 1004.5 0.0
23/11:00pm 18.6 18.1 16.0 85 1.6 ESE 13 20 7 11 1006.7 1004.7 0.0
23/10:30pm 18.8 18.0 16.0 84 1.7 SSE 15 20 8 11 1007.2 1005.2 0.0
23/10:00pm 19.2 17.7 15.3 78 2.4 S 17 24 9 13 1007.4 1005.4 0.0
23/09:30pm 19.5 16.6 15.0 75 2.7 S 24 33 13 18 1007.1 1005.1 0.0
23/09:00pm 20.1 17.7 14.5 70 3.3 S 20 30 11 16 1007.3 1005.3 0.0
23/08:30pm 22.4 18.8 13.2 56 5.4 SSW 24 41 13 22 1006.9 1004.9 0.0
23/08:23pm 22.7 18.3 12.9 54 5.8 SSW 28 46 15 25 1006.9 1004.9 0.0
23/08:00pm 25.7 20.0 11.1 40 8.5 SSW 32 43 17 23 1005.9 1004.0 0.0
23/07:56pm 26.2 21.2 10.8 38 8.9 SSW 28 46 15 25 1005.8 1003.9 0.0
23/07:53pm 26.5 22.5 10.6 37 9.1 SSW 22 46 12 25 1005.7 1003.7 0.0
23/07:30pm 31.5 28.5 5.8 20 14.0 NW 11 17 6 9 1005.2 1003.2 0.0
23/07:00pm 32.0 28.5 5.5 19 14.4 NW 13 17 7 9 1004.9 1002.9 0.0
23/06:30pm 32.5 27.6 5.1 18 14.8 NW 20 32 11 17 1004.9 1002.9 0.0
23/06:00pm 33.4 27.3 5.0 17 15.5 NNW 26 35 14 19 1004.9 1002.9 0.0
23/05:30pm 32.5 26.5 5.1 18 14.8 NNW 26 37 14 20 1005.3 1003.3 0.0
23/05:00pm 32.2 25.7 4.9 18 14.8 NNW 28 37 15 20 1005.4 1003.4 0.0
23/04:30pm 32.2 25.0 4.9 18 14.7 NNW 32 43 17 23 1005.9 1004.0 0.0
23/04:00pm 33.6 27.9 8.3 21 14.5 NW 28 39 15 21 1006.1 1004.2 0.0
23/03:30pm 33.3 28.3 8.0 21 14.4 NW 24 39 13 21 1006.5 1004.5 0.0
23/03:00pm 32.3 27.6 9.2 24 13.4 NNW 24 32 13 17 1006.7 1004.7 0.0
23/02:30pm 32.3 26.4 9.2 24 13.3 NNW 30 39 16 21 1006.8 1004.8 0.0
23/02:27pm 32.0 26.6 9.5 25 13.0 N 28 39 15 21 1006.8 1004.8 0.0
23/02:00pm 32.3 29.8 13.5 32 11.6 NNW 19 30 10 16 1007.4 1005.4 0.0
23/01:30pm 29.6 26.1 13.4 37 9.9 N 24 32 13 17 1007.8 1005.9 0.0
23/01:00pm 30.1 26.0 13.8 37 10.0 N 28 37 15 20 1007.9 1006.0 0.0
23/12:30pm 28.4 24.5 14.3 42 8.7 N 28 37 15 20 1008.6 1006.6 0.0
23/12:00pm 28.0 23.9 13.9 42 8.6 N 28 37 15 20 1008.3 1006.4 0.0
23/11:30am 26.5 21.3 13.3 44 7.9 N 33 44 18 24 1008.5 1006.5 0.0
23/11:00am 27.0 21.2 12.6 41 8.6 NNE 35 46 19 25 1008.6 1006.6 0.0
23/10:30am 26.1 21.2 12.5 42 8.0 N 30 37 16 20 1009.0 1007.0 0.0
23/10:00am 25.8 21.0 11.6 41 8.3 N 28 35 15 19 1009.1 1007.2 0.0
23/09:30am 24.9 20.8 11.5 43 7.8 N 24 32 13 17 1009.4 1007.5 0.0
23/09:00am 23.6 19.4 11.0 45 7.2 NNE 24 30 13 16 1009.4 1007.5 0.2
23/08:30am 22.6 18.7 10.7 47 6.7 N 22 26 12 14 1009.4 1007.5 0.2
23/08:00am 22.2 17.9 10.7 48 6.5 NNE 24 30 13 16 1009.3 1007.4 0.2
23/07:30am 21.8 17.1 10.6 49 6.3 NNE 26 32 14 17 1009.1 1007.2 0.2
23/07:00am 21.4 16.7 10.6 50 6.1 NNE 26 30 14 16 1009.3 1007.4 0.2
23/06:30am 21.5 16.3 10.3 49 6.3 NNE 28 32 15 17 1009.4 1007.5 0.2
23/06:00am 21.8 17.4 10.3 48 6.4 NNE 24 30 13 16 1009.5 1007.6 0.2
23/05:30am 22.3 18.2 10.1 46 6.8 NNE 22 24 12 13 1009.4 1007.5 0.2
23/05:00am 22.5 18.0 10.0 45 7.0 N 24 26 13 14 1009.5 1007.6 0.2
23/04:30am 22.0 17.5 10.2 47 6.6 NNE 24 26 13 14 1009.5 1007.6 0.2
23/04:00am 21.8 17.3 10.0 47 6.6 NNE 24 26 13 14 1009.7 1007.8 0.2
23/03:30am 22.0 18.0 10.5 48 6.5 NNE 22 26 12 14 1009.8 1007.9 0.2
23/03:00am 21.8 17.8 10.6 49 6.3 NNE 22 26 12 14 1010.0 1008.1 0.2
23/02:30am 22.1 18.6 10.9 49 6.3 NNE 20 24 11 13 1010.5 1008.5 0.2
23/02:00am 22.3 19.1 11.4 50 6.2 NNE 19 20 10 11 1010.7 1008.7 0.2
23/01:30am 22.0 20.7 12.5 54 5.5 NE 11 13 6 7 1011.0 1009.1 0.2
23/01:00am 20.5 21.1 14.2 67 3.7 SW 4 7 2 4 1011.6 1009.7 0.2
23/12:30am 21.3 21.2 14.0 63 4.3 SSE 7 9 4 5 1011.9 1010.0 0.2
23/12:00am 20.4 20.1 14.3 68 3.6 S 9 11 5 6 1012.5 1010.6 0.2
 
Date/Time
EDT
Temp
°C
App
Temp
°C
Dew
Point
°C
Rel
Hum
%
Delta-T
°C
Wind Press
QNH
hPa
Press
MSL
hPa
Rain since
9am
mm
Dir  Spd
km/h
Gust
km/h
Spd
kts
Gust
kts
22/11:30pm 21.3 20.7 14.7 66 4.0 SSE 11 13 6 7 1012.5 1010.6 0.2
22/11:00pm 21.1 20.5 14.7 67 3.8 S 11 13 6 7 1012.7 1010.8 0.2
22/10:30pm 20.5 19.0 14.2 67 3.7 SW 15 19 8 10 1013.0 1011.1 0.2
22/10:00pm 21.7 21.4 14.4 63 4.4 S 9 11 5 6 1013.0 1011.1 0.2
22/09:30pm 21.9 21.0 13.8 60 4.8 SSW 11 13 6 7 1013.3 1011.4 0.2
22/09:00pm 22.9 21.9 13.4 55 5.6 S 11 13 6 7 1013.3 1011.4 0.2
22/08:30pm 24.3 24.1 12.9 49 6.7 SSE 6 9 3 5 1013.1 1011.2 0.2
22/08:00pm 25.5 25.0 13.7 48 7.1 SSE 9 13 5 7 1013.0 1011.1 0.2
22/07:30pm 27.1 26.1 13.4 42 8.3 SSE 11 17 6 9 1012.7 1010.8 0.2
22/07:00pm 28.4 27.0 8.7 29 11.1 ENE 6 9 3 5 1012.6 1010.7 0.2
22/06:30pm 28.6 26.4 9.3 30 11.0 NE 11 17 6 9 1012.8 1010.9 0.2
22/06:00pm 28.8 27.3 9.0 29 11.2 E 7 13 4 7 1013.0 1011.1 0.2
22/05:30pm 29.5 28.1 9.6 29 11.4 NW 7 17 4 9 1013.2 1011.3 0.2
22/05:00pm 29.8 28.1 9.9 29 11.5 E 9 13 5 7 1013.3 1011.4 0.2
22/04:30pm 30.1 28.2 10.6 30 11.4 NE 11 20 6 11 1013.6 1011.7 0.2
22/04:00pm 29.2 27.6 8.8 28 11.5 SSE 7 13 4 7 1013.8 1011.9 0.2
22/03:30pm 28.0 26.2 7.8 28 11.2 N 7 13 4 7 1014.1 1012.3 0.2
22/03:00pm 28.6 27.0 8.8 29 11.2 N 7 15 4 8 1014.6 1012.7 0.2
22/02:30pm 28.1 26.2 8.9 30 10.8 W 9 15 5 8 1014.8 1012.9 0.2
22/02:00pm 27.8 25.5 9.1 31 10.5 N 11 19 6 10 1015.0 1013.1 0.2
22/01:30pm 26.3 23.8 9.6 35 9.4 NE 13 20 7 11 1015.2 1013.3 0.2
22/01:00pm 25.8 23.7 9.6 36 9.1 NE 11 22 6 12 1015.4 1013.5 0.2
22/12:30pm 24.9 23.1 9.6 38 8.6 NNE 9 17 5 9 1015.7 1013.8 0.2
22/12:00pm 23.6 21.1 9.6 41 7.8 NNE 13 19 7 10 1016.0 1014.2 0.2
22/11:30am 22.5 20.7 9.3 43 7.3 NE 9 15 5 8 1016.1 1014.3 0.0
22/11:00am 20.6 18.0 9.2 48 6.2 SE 13 19 7 10 1016.5 1014.6 0.0
22/10:30am 20.0 17.5 11.0 56 5.0 SSE 15 24 8 13 1016.6 1014.7 0.0
22/10:00am 18.4 15.7 10.5 60 4.3 SSE 15 22 8 12 1016.7 1014.8 0.0
22/09:30am 16.2 13.3 10.9 71 2.9 SSE 17 24 9 13 1016.9 1015.0 0.0
22/09:00am 15.0 12.5 11.0 77 2.2 S 15 20 8 11 1017.1 1015.2 0.0
22/08:30am 13.7 10.9 11.4 86 1.3 S 17 24 9 13 1017.1 1015.2 0.0
22/08:00am 12.8 10.2 12.0 95 0.4 S 17 22 9 12 1016.8 1014.9 0.0
22/07:48am 12.4 9.4 12.1 98 0.2 S 19 24 10 13 1016.7 1014.8 0.0
22/07:42am 12.2 9.6 12.0 99 0.1 S 17 22 9 12 1016.7 1014.8 0.0
22/07:30am 11.8 9.1 11.6 99 0.1 S 17 22 9 12 1016.7 1014.8 0.0
22/07:00am 11.2 8.3 11.0 99 0.1 S 17 22 9 12 1016.5 1014.6 0.0
22/06:54am 11.0 8.0 10.8 99 0.1 S 17 22 9 12 1016.5 1014.6 0.0
22/06:47am 10.8 7.8 10.6 99 0.1 S 17 22 9 12 1016.5 1014.6 0.0
22/06:30am 10.5 7.8 10.3 99 0.1 S 15 20 8 11 1016.3 1014.5 0.0
22/06:00am 10.5 8.2 10.3 99 0.1 S 13 19 7 10 1016.3 1014.5 0.0
22/05:30am 10.5 8.2 10.3 99 0.1 S 13 19 7 10 1015.9 1014.1 0.0
22/05:00am 10.7 8.0 10.5 99 0.1 S 15 20 8 11 1015.7 1013.8 0.0
22/04:30am 10.8 8.5 10.6 99 0.1 S 13 19 7 10 1015.8 1014.0 0.0
22/04:00am 10.8 8.5 10.6 99 0.1 S 13 17 7 9 1015.7 1013.8 0.0
22/03:30am 10.9 9.0 10.6 98 0.2 S 11 15 6 8 1015.9 1014.1 0.0
22/03:00am 11.0 9.1 10.5 97 0.3 S 11 15 6 8 1016.1 1014.3 0.0
22/02:30am 11.0 8.7 10.4 96 0.3 SSW 13 17 7 9 1016.2 1014.4 0.0
22/02:00am 11.0 8.7 10.4 96 0.3 S 13 15 7 8 1016.3 1014.5 0.0
22/01:30am 10.9 8.1 10.1 95 0.4 S 15 19 8 10 1016.5 1014.6 0.0
22/01:00am 10.9 8.5 10.0 94 0.5 S 13 17 7 9 1016.7 1014.8 0.0
22/12:30am 11.3 8.6 10.4 94 0.5 S 15 20 8 11 1016.8 1014.9 0.0
22/12:00am 11.9 9.8 11.1 95 0.4 S 13 19 7 10 1016.9 1015.0 0.0
 
Date/Time
EDT
Temp
°C
App
Temp
°C
Dew
Point
°C
Rel
Hum
%
Delta-T
°C
Wind Press
QNH
hPa
Press
MSL
hPa
Rain since
9am
mm
Dir  Spd
km/h
Gust
km/h
Spd
kts
Gust
kts
21/11:30pm 12.5 10.5 11.6 94 0.5 SSW 13 19 7 10 1017.0 1015.1 0.0
21/11:00pm 12.8 10.5 11.7 93 0.6 SSW 15 19 8 10 1017.2 1015.3 0.0
21/10:30pm 12.8 10.4 11.5 92 0.7 S 15 20 8 11 1017.2 1015.3 0.0

Other Formats:

Comma delimited format used in spreadsheet applications
http://www.bom.gov.au/fwo/IDV60801/IDV60801.94860.axf

JavaScript Object Notation format (JSON) in row-major order
http://www.bom.gov.au/fwo/IDV60801/IDV60801.94860.json